Time;durP1;ratioP1;P1;durP2;ratioP2;P2;SDS_P1;SDS_P2;PMS_P1;PMS_P2;Temp;Humidity;BMP_temperature;BMP_pressure;BME280_temperature;BME280_humidity;BME280_pressure;Samples;Min_cycle;Max_cycle;Signal;HPM_P1;HPM_P2
2023/08/07 00:00:42;;;;;;;1.80;1.17;;;20.60;99.90;;;;;;5024148;28;20184;-88
2023/08/07 00:03:08;;;;;;;1.70;1.17;;;20.50;99.90;;;;;;5025726;28;20295;-88
2023/08/07 00:05:34;;;;;;;1.70;1.10;;;20.50;99.90;;;;;;5026797;28;20386;-88
2023/08/07 00:08:00;;;;;;;2.23;1.23;;;20.50;99.90;;;;;;5024194;28;20195;-88
2023/08/07 00:10:26;;;;;;;1.40;1.30;;;20.50;99.90;;;;;;5023743;28;20263;-88
2023/08/07 00:12:52;;;;;;;2.30;1.17;;;20.50;99.90;;;;;;5028642;28;20180;-87
2023/08/07 00:15:18;;;;;;;1.00;0.90;;;20.50;99.90;;;;;;5027979;28;20183;-87
2023/08/07 00:17:44;;;;;;;1.63;1.20;;;20.50;99.90;;;;;;5028453;28;20554;-88
2023/08/07 00:20:10;;;;;;;1.20;1.10;;;20.50;99.90;;;;;;5024983;28;20501;-88
2023/08/07 00:22:35;;;;;;;2.73;1.07;;;20.50;99.90;;;;;;5038852;28;20212;-89
2023/08/07 00:25:01;;;;;;;1.50;1.10;;;20.50;99.90;;;;;;5024880;28;20548;-89
2023/08/07 00:27:27;;;;;;;1.63;1.07;;;20.50;99.90;;;;;;5026139;28;20189;-89
2023/08/07 00:29:53;;;;;;;1.37;1.10;;;20.50;99.90;;;;;;5026991;28;20216;-89
2023/08/07 00:32:19;;;;;;;1.47;1.23;;;20.50;99.90;;;;;;5025368;28;20555;-89
2023/08/07 00:34:45;;;;;;;1.77;1.20;;;20.50;99.90;;;;;;5044454;28;20191;-90
2023/08/07 00:37:11;;;;;;;1.63;1.00;;;20.40;99.90;;;;;;5025523;28;20184;-89
2023/08/07 00:39:36;;;;;;;1.27;1.10;;;20.40;99.90;;;;;;5025868;28;20443;-90
2023/08/07 00:42:02;;;;;;;1.87;1.30;;;20.50;99.90;;;;;;5025492;28;20191;-88
2023/08/07 00:44:28;;;;;;;1.93;1.40;;;20.50;99.90;;;;;;5025409;28;20187;-89
2023/08/07 00:46:55;;;;;;;2.03;1.10;;;20.40;99.90;;;;;;5010258;28;20210;-89
2023/08/07 00:49:21;;;;;;;1.30;1.20;;;20.40;99.90;;;;;;5025196;28;20184;-89
2023/08/07 00:51:47;;;;;;;1.53;1.30;;;20.40;99.90;;;;;;5027034;28;20179;-89
2023/08/07 00:54:18;;;;;;;1.10;1.00;;;20.30;99.90;;;;;;5023347;28;20191;-88
2023/08/07 00:56:44;;;;;;;2.53;1.20;;;20.30;99.90;;;;;;5043093;28;20265;-89
2023/08/07 00:59:10;;;;;;;1.73;1.20;;;20.30;99.90;;;;;;5039549;28;20258;-89
2023/08/07 01:01:36;;;;;;;1.50;1.40;;;20.20;99.90;;;;;;5024918;28;20184;-90
2023/08/07 01:04:02;;;;;;;1.83;1.30;;;20.20;99.90;;;;;;5023722;28;20189;-89
2023/08/07 01:06:28;;;;;;;2.20;1.47;;;20.30;99.90;;;;;;5025536;28;20246;-89
2023/08/07 01:08:54;;;;;;;1.70;1.30;;;20.30;99.90;;;;;;5025175;28;20562;-89
2023/08/07 01:11:49;;;;;;;1.97;1.33;;;20.30;99.90;;;;;;5027223;28;20212;-89
2023/08/07 01:14:34;;;;;;;1.83;1.20;;;20.20;99.90;;;;;;5032166;28;20230;-89
2023/08/07 01:17:11;;;;;;;1.27;1.10;;;20.20;99.90;;;;;;5023150;28;20184;-89
2023/08/07 01:19:36;;;;;;;2.30;1.47;;;20.30;99.90;;;;;;5043911;28;20184;-89
2023/08/07 01:22:09;;;;;;;3.33;1.40;;;20.30;99.90;;;;;;5024553;28;20516;-88
2023/08/07 01:24:36;;;;;;;1.80;1.30;;;20.30;99.90;;;;;;5023820;28;20244;-88
2023/08/07 01:27:18;;;;;;;2.03;1.47;;;20.30;99.90;;;;;;5042756;28;20192;-88
2023/08/07 01:29:51;;;;;;;2.40;1.40;;;20.30;99.90;;;;;;5022867;28;20262;-88
2023/08/07 01:32:34;;;;;;;2.53;1.50;;;20.30;99.90;;;;;;5037854;28;20280;-88
2023/08/07 01:35:02;;;;;;;1.50;1.30;;;20.30;99.90;;;;;;5023280;28;20189;-88
2023/08/07 01:37:35;;;;;;;1.43;1.33;;;20.20;99.90;;;;;;5024682;28;20184;-88
2023/08/07 01:40:03;;;;;;;2.40;1.40;;;20.20;99.90;;;;;;5020844;28;20242;-88
2023/08/07 01:42:30;;;;;;;1.53;1.40;;;20.20;99.90;;;;;;5023016;28;21366;-88
2023/08/07 01:44:55;;;;;;;2.03;1.30;;;20.20;99.90;;;;;;5023972;28;20444;-88
2023/08/07 01:47:21;;;;;;;1.67;1.37;;;20.30;99.90;;;;;;5022283;28;20191;-89
2023/08/07 01:49:47;;;;;;;1.83;1.37;;;20.30;99.90;;;;;;5024825;28;20210;-89
2023/08/07 01:52:13;;;;;;;1.80;1.30;;;20.30;99.90;;;;;;5043638;28;20172;-88
2023/08/07 01:54:38;;;;;;;3.03;1.40;;;20.30;99.90;;;;;;5024495;28;20181;-88
2023/08/07 01:57:05;;;;;;;2.20;1.40;;;20.30;99.90;;;;;;5025165;28;20279;-88
2023/08/07 01:59:30;;;;;;;2.10;1.30;;;20.30;99.90;;;;;;5024086;28;20191;-89
2023/08/07 02:01:56;;;;;;;1.73;1.30;;;20.30;99.90;;;;;;5027845;28;20184;-89
2023/08/07 02:04:21;;;;;;;1.90;1.30;;;20.30;99.90;;;;;;5024114;28;20173;-89
2023/08/07 02:06:47;;;;;;;2.53;1.40;;;20.20;99.90;;;;;;5026456;28;20182;-88
2023/08/07 02:09:13;;;;;;;1.63;1.47;;;20.20;99.90;;;;;;5041934;28;20204;-89
2023/08/07 02:11:39;;;;;;;1.60;1.20;;;20.20;99.90;;;;;;5027033;28;20211;-89
2023/08/07 02:14:04;;;;;;;1.43;1.20;;;20.20;99.90;;;;;;5027070;28;20241;-89
2023/08/07 02:16:30;;;;;;;1.30;1.20;;;20.30;99.90;;;;;;5029223;28;20530;-88
2023/08/07 02:18:56;;;;;;;2.03;1.30;;;20.20;99.90;;;;;;5028855;28;20594;-89
2023/08/07 02:21:21;;;;;;;1.47;1.30;;;20.20;99.90;;;;;;5046922;28;20176;-89
2023/08/07 02:23:47;;;;;;;1.27;1.10;;;20.20;99.90;;;;;;5033212;28;20207;-89
2023/08/07 02:26:13;;;;;;;2.13;1.23;;;20.20;99.90;;;;;;5027837;28;20184;-88
2023/08/07 02:28:38;;;;;;;2.30;1.40;;;20.20;99.90;;;;;;5029202;28;20219;-89
2023/08/07 02:31:04;;;;;;;1.30;1.10;;;20.20;99.90;;;;;;5028154;28;20307;-88
2023/08/07 02:33:30;;;;;;;1.30;1.20;;;20.20;99.90;;;;;;5029519;28;20214;-88
2023/08/07 02:35:56;;;;;;;1.70;1.20;;;20.20;99.90;;;;;;5026815;28;20211;-88
2023/08/07 02:38:22;;;;;;;2.10;1.20;;;20.20;99.90;;;;;;5026546;28;20184;-89
2023/08/07 02:40:48;;;;;;;1.70;1.13;;;20.20;99.90;;;;;;5042379;28;20180;-88
2023/08/07 02:43:14;;;;;;;2.23;1.23;;;20.20;99.90;;;;;;5029986;28;20568;-89
2023/08/07 02:45:39;;;;;;;1.40;1.10;;;20.20;99.90;;;;;;5024824;28;20220;-89
2023/08/07 02:48:05;;;;;;;1.43;1.20;;;20.20;99.90;;;;;;5024943;28;20550;-89
2023/08/07 02:50:32;;;;;;;1.33;1.10;;;20.10;99.90;;;;;;5033214;28;20215;-88
2023/08/07 02:52:59;;;;;;;1.20;1.10;;;20.10;99.90;;;;;;5028424;28;20185;-88
2023/08/07 02:55:24;;;;;;;2.33;1.27;;;20.10;99.90;;;;;;5028165;28;20657;-89
2023/08/07 02:57:50;;;;;;;1.07;0.97;;;20.10;99.90;;;;;;5027615;28;20275;-88
2023/08/07 03:00:16;;;;;;;1.10;0.97;;;20.10;99.90;;;;;;5028511;28;20630;-88
2023/08/07 03:02:42;;;;;;;1.13;1.00;;;20.10;99.90;;;;;;5044650;28;20730;-88
2023/08/07 03:05:08;;;;;;;1.53;1.20;;;20.10;99.90;;;;;;5026894;28;20249;-88
2023/08/07 03:07:34;;;;;;;1.47;1.07;;;20.10;99.90;;;;;;5028582;28;20192;-89
2023/08/07 03:09:59;;;;;;;1.63;1.33;;;20.10;99.90;;;;;;5027116;28;20617;-88
2023/08/07 03:12:25;;;;;;;1.43;1.00;;;20.10;99.90;;;;;;5029893;28;20653;-89
2023/08/07 03:14:51;;;;;;;1.43;1.20;;;20.20;99.90;;;;;;5026384;28;20245;-89
2023/08/07 03:17:17;;;;;;;2.00;1.10;;;20.10;99.90;;;;;;5026199;28;20177;-88
2023/08/07 03:19:43;;;;;;;1.10;1.00;;;20.10;99.90;;;;;;5041008;28;20177;-88
2023/08/07 03:22:09;;;;;;;2.00;1.17;;;20.10;99.90;;;;;;5027266;28;20628;-88
2023/08/07 03:24:35;;;;;;;1.93;1.20;;;20.00;99.90;;;;;;5023593;28;20208;-88
2023/08/07 03:27:01;;;;;;;1.60;1.30;;;20.10;99.90;;;;;;5022610;28;20244;-89
2023/08/07 03:29:27;;;;;;;2.47;1.20;;;20.00;99.90;;;;;;5024132;28;20407;-89
2023/08/07 03:31:52;;;;;;;2.47;1.10;;;19.90;99.90;;;;;;5043747;28;20176;-89
2023/08/07 03:34:18;;;;;;;1.67;1.20;;;19.90;99.90;;;;;;5025260;28;20181;-89
2023/08/07 03:36:45;;;;;;;1.30;1.17;;;19.90;99.90;;;;;;5024576;28;20188;-89
2023/08/07 03:39:12;;;;;;;1.47;1.23;;;19.90;99.90;;;;;;5025744;28;20216;-89
2023/08/07 03:41:37;;;;;;;1.77;1.20;;;19.90;99.90;;;;;;5025354;28;20216;-89
2023/08/07 03:44:04;;;;;;;1.97;1.30;;;20.00;99.90;;;;;;5024560;28;20741;-89
2023/08/07 03:46:30;;;;;;;1.40;1.27;;;20.00;99.90;;;;;;5026849;28;20184;-89
2023/08/07 03:48:55;;;;;;;2.37;1.27;;;20.00;99.90;;;;;;5025414;28;20255;-90
2023/08/07 03:51:21;;;;;;;1.60;1.23;;;20.00;99.90;;;;;;5023717;28;20235;-89
2023/08/07 03:53:47;;;;;;;1.90;1.40;;;19.90;99.90;;;;;;5031756;28;20203;-89
2023/08/07 03:56:13;;;;;;;1.30;1.20;;;19.90;99.90;;;;;;5054711;28;20524;-90
2023/08/07 03:58:38;;;;;;;1.50;1.30;;;19.90;99.90;;;;;;5043333;28;20176;-90
2023/08/07 04:01:04;;;;;;;2.07;1.40;;;19.90;99.90;;;;;;5023543;28;20181;-90
2023/08/07 04:03:30;;;;;;;3.43;1.40;;;19.90;99.90;;;;;;5045647;28;20177;-90
2023/08/07 04:05:56;;;;;;;1.57;1.40;;;20.00;99.90;;;;;;5025638;28;20408;-89
2023/08/07 04:08:22;;;;;;;1.87;1.40;;;19.90;99.90;;;;;;5040954;28;20169;-90
2023/08/07 04:11:05;;;;;;;2.37;1.40;;;19.90;99.90;;;;;;5026576;28;20311;-89
2023/08/07 04:13:31;;;;;;;2.03;1.50;;;19.80;99.90;;;;;;5023352;28;20173;-89
2023/08/07 04:15:58;;;;;;;3.07;1.57;;;19.80;99.90;;;;;;5025416;28;20183;-89
2023/08/07 04:18:24;;;;;;;2.83;1.60;;;19.80;99.90;;;;;;5026500;28;20514;-89
2023/08/07 04:20:52;;;;;;;2.27;1.57;;;19.90;99.90;;;;;;5023822;28;20457;-88
2023/08/07 04:23:17;;;;;;;2.53;1.60;;;19.90;99.90;;;;;;5024947;28;20226;-89
2023/08/07 04:25:43;;;;;;;1.87;1.60;;;19.90;99.90;;;;;;5022250;28;20204;-89
2023/08/07 04:28:09;;;;;;;3.27;1.97;;;19.90;99.90;;;;;;5018974;28;20184;-89
2023/08/07 04:30:35;;;;;;;1.20;1.10;;;19.90;99.90;;;;;;5021647;28;20223;-88
2023/08/07 04:33:00;;;;;;;3.50;1.80;;;19.90;99.90;;;;;;5022995;28;20186;-89
2023/08/07 04:35:26;;;;;;;5.17;1.70;;;19.90;99.90;;;;;;5024380;28;20514;-89
2023/08/07 04:37:52;;;;;;;2.83;1.60;;;19.90;99.90;;;;;;5019975;28;20268;-89
2023/08/07 04:40:18;;;;;;;1.93;1.60;;;19.80;99.90;;;;;;5023045;28;20180;-89
2023/08/07 04:42:43;;;;;;;5.47;1.83;;;19.90;99.90;;;;;;5020808;28;20180;-88
2023/08/07 04:45:09;;;;;;;3.20;1.90;;;19.90;99.90;;;;;;5037380;28;20226;-89
2023/08/07 04:47:35;;;;;;;3.07;1.70;;;19.90;99.90;;;;;;5041445;28;20176;-89
2023/08/07 04:50:01;;;;;;;2.43;1.83;;;19.90;99.90;;;;;;5038239;28;20298;-88
2023/08/07 04:52:27;;;;;;;2.57;1.70;;;19.90;99.90;;;;;;5024628;28;20253;-89
2023/08/07 04:54:53;;;;;;;3.20;1.57;;;19.90;99.90;;;;;;5024137;28;20180;-88
2023/08/07 04:57:18;;;;;;;2.20;1.70;;;19.90;99.90;;;;;;5025756;28;20177;-89
2023/08/07 04:59:44;;;;;;;2.33;1.70;;;19.90;99.90;;;;;;5024790;28;20177;-89
2023/08/07 05:02:10;;;;;;;4.40;1.90;;;19.90;99.90;;;;;;5039123;28;20404;-89
2023/08/07 05:04:35;;;;;;;2.77;2.03;;;19.80;99.90;;;;;;5039915;28;20177;-89
2023/08/07 05:07:01;;;;;;;3.47;2.07;;;19.90;99.90;;;;;;5020492;28;20184;-89
2023/08/07 05:09:27;;;;;;;2.60;1.90;;;19.80;99.90;;;;;;5019656;28;20679;-89
2023/08/07 05:11:53;;;;;;;2.50;1.77;;;19.80;99.90;;;;;;5020654;28;20286;-89
2023/08/07 05:14:18;;;;;;;4.03;1.80;;;19.80;99.90;;;;;;5021867;28;20558;-89
2023/08/07 05:16:44;;;;;;;3.03;2.40;;;19.80;99.90;;;;;;5021103;28;20401;-89
2023/08/07 05:19:10;;;;;;;2.77;1.90;;;19.80;99.90;;;;;;5018343;28;20180;-89
2023/08/07 05:21:35;;;;;;;4.20;1.97;;;19.80;99.90;;;;;;5035032;28;20185;-89
2023/08/07 05:24:01;;;;;;;2.73;1.90;;;19.80;99.90;;;;;;5039224;28;20203;-89
2023/08/07 05:26:29;;;;;;;2.73;1.90;;;19.80;99.90;;;;;;5018904;28;20189;-90
2023/08/07 05:28:57;;;;;;;3.83;2.50;;;19.80;99.90;;;;;;5038161;28;20271;-90
2023/08/07 05:31:24;;;;;;;2.43;1.70;;;19.80;99.90;;;;;;5036865;28;20447;-90
2023/08/07 05:33:50;;;;;;;4.40;2.20;;;19.80;99.90;;;;;;5019664;28;20451;-89
2023/08/07 05:36:16;;;;;;;3.60;1.97;;;19.80;99.90;;;;;;5016518;28;20179;-90
2023/08/07 05:38:42;;;;;;;3.70;2.47;;;19.90;99.90;;;;;;5019354;28;20544;-89
2023/08/07 05:41:09;;;;;;;3.70;2.33;;;19.90;99.90;;;;;;5015444;28;20185;-89
2023/08/07 05:43:35;;;;;;;3.07;1.87;;;19.80;99.90;;;;;;5016976;28;20354;-89
2023/08/07 05:46:01;;;;;;;4.40;2.10;;;19.80;99.90;;;;;;5013600;28;20216;-90
2023/08/07 05:48:27;;;;;;;3.97;2.37;;;19.80;99.90;;;;;;5017506;28;20184;-89
2023/08/07 05:50:53;;;;;;;2.90;1.80;;;19.80;99.90;;;;;;5035344;28;20388;-89
2023/08/07 05:53:19;;;;;;;3.13;2.00;;;19.80;99.90;;;;;;5021549;28;20180;-90
2023/08/07 05:55:44;;;;;;;4.27;1.87;;;19.80;99.90;;;;;;5020270;28;20239;-89
2023/08/07 05:58:11;;;;;;;3.80;2.00;;;19.80;99.90;;;;;;5022664;28;20179;-89
2023/08/07 06:00:36;;;;;;;4.07;2.00;;;19.80;99.90;;;;;;5021637;28;20192;-90
2023/08/07 06:03:02;;;;;;;5.53;1.97;;;19.90;99.90;;;;;;5040352;28;20192;-90
2023/08/07 06:05:28;;;;;;;6.40;2.03;;;19.80;99.90;;;;;;5019445;28;20188;-90
2023/08/07 06:07:54;;;;;;;3.17;1.70;;;19.80;99.90;;;;;;5022244;28;20189;-90
2023/08/07 06:10:20;;;;;;;4.90;2.40;;;19.80;99.90;;;;;;5022617;28;20482;-90
2023/08/07 06:12:45;;;;;;;4.70;2.20;;;19.90;99.90;;;;;;5024354;28;20574;-90
2023/08/07 06:15:11;;;;;;;5.23;1.90;;;19.80;99.90;;;;;;5004438;28;20189;-90
2023/08/07 06:17:39;;;;;;;3.20;1.83;;;19.80;99.90;;;;;;5024000;28;20577;-90
2023/08/07 06:20:09;;;;;;;3.80;2.00;;;19.80;99.90;;;;;;5023130;28;20195;-90
2023/08/07 06:22:35;;;;;;;3.60;2.00;;;19.80;99.90;;;;;;5021649;28;20349;-87
2023/08/07 06:25:01;;;;;;;3.07;2.10;;;19.90;99.90;;;;;;5021304;28;20466;-88
2023/08/07 06:27:27;;;;;;;5.67;1.80;;;19.90;99.90;;;;;;5018301;28;20295;-87
2023/08/07 06:29:53;;;;;;;6.47;2.10;;;19.80;99.90;;;;;;5037446;28;20219;-88
2023/08/07 06:32:18;;;;;;;6.97;2.00;;;19.60;99.90;;;;;;5016993;28;20184;-87
2023/08/07 06:34:44;;;;;;;7.50;2.27;;;19.60;99.90;;;;;;5037808;28;20188;-87
2023/08/07 06:37:10;;;;;;;7.30;1.90;;;19.50;99.90;;;;;;5020768;28;20192;-87
2023/08/07 06:39:36;;;;;;;5.03;1.93;;;19.60;99.90;;;;;;5039272;28;20181;-87
2023/08/07 06:42:02;;;;;;;7.97;2.27;;;19.60;99.90;;;;;;5040193;28;20207;-87
2023/08/07 06:44:27;;;;;;;6.37;2.63;;;19.70;99.90;;;;;;5041847;28;20316;-87
2023/08/07 06:46:53;;;;;;;8.67;2.60;;;19.70;99.90;;;;;;5021802;28;20290;-87
2023/08/07 06:49:19;;;;;;;6.47;3.00;;;19.60;99.90;;;;;;5023424;28;20196;-86
2023/08/07 06:51:45;;;;;;;7.03;2.63;;;19.50;99.90;;;;;;5035903;28;20506;-86
2023/08/07 06:54:10;;;;;;;5.63;2.57;;;19.60;99.90;;;;;;5020504;28;20283;-86
2023/08/07 06:56:38;;;;;;;3.33;2.20;;;19.60;99.90;;;;;;5017281;28;20192;-86
2023/08/07 06:59:04;;;;;;;5.47;2.50;;;19.60;99.90;;;;;;5017742;28;20257;-86
2023/08/07 07:01:29;;;;;;;4.30;2.37;;;19.60;99.90;;;;;;5020396;28;20307;-86
2023/08/07 07:03:55;;;;;;;5.80;2.17;;;19.50;99.90;;;;;;5017954;28;20288;-85
2023/08/07 07:06:23;;;;;;;5.63;2.00;;;19.50;99.90;;;;;;5020175;28;20290;-86
2023/08/07 07:08:48;;;;;;;4.20;2.20;;;19.40;99.90;;;;;;5018964;28;20389;-87
2023/08/07 07:11:15;;;;;;;4.27;1.73;;;19.50;99.90;;;;;;5018782;28;20259;-87
2023/08/07 07:13:41;;;;;;;3.00;2.00;;;19.50;99.90;;;;;;5037898;28;20179;-87
2023/08/07 07:16:07;;;;;;;2.43;1.80;;;19.50;99.90;;;;;;5019229;28;20478;-86
2023/08/07 07:18:33;;;;;;;3.23;1.80;;;19.50;99.90;;;;;;5037063;28;20181;-87
2023/08/07 07:21:00;;;;;;;2.00;1.70;;;19.50;99.90;;;;;;5037199;28;20261;-87
2023/08/07 07:23:26;;;;;;;2.73;1.90;;;19.50;99.90;;;;;;5032226;28;20583;-86
2023/08/07 07:25:52;;;;;;;2.33;1.77;;;19.40;99.90;;;;;;5019843;28;20177;-86
2023/08/07 07:28:17;;;;;;;4.43;1.97;;;19.50;99.90;;;;;;5029760;28;20196;-86
2023/08/07 07:30:43;;;;;;;2.93;2.07;;;19.20;99.90;;;;;;5018310;28;20211;-87
2023/08/07 07:33:09;;;;;;;2.63;1.70;;;19.30;99.90;;;;;;5036758;28;20176;-87
2023/08/07 07:35:41;;;;;;;7.20;1.90;;;19.40;99.90;;;;;;5018031;28;20503;-87
2023/08/07 07:38:07;;;;;;;2.87;1.80;;;19.50;99.90;;;;;;5019288;28;20169;-87
2023/08/07 07:40:34;;;;;;;3.17;2.00;;;19.50;99.90;;;;;;5037950;28;20390;-87
2023/08/07 07:43:00;;;;;;;3.37;1.90;;;19.60;99.90;;;;;;5020385;28;20413;-87
2023/08/07 07:45:25;;;;;;;3.00;1.77;;;19.60;99.90;;;;;;5037438;28;20208;-87
2023/08/07 07:47:51;;;;;;;2.83;1.87;;;19.40;99.90;;;;;;5035572;28;20466;-87
2023/08/07 07:50:17;;;;;;;2.70;1.80;;;19.40;99.90;;;;;;5034611;28;20285;-87
2023/08/07 07:52:43;;;;;;;2.37;1.83;;;19.50;99.90;;;;;;5001381;28;20246;-87
2023/08/07 07:55:10;;;;;;;2.97;2.00;;;19.50;99.90;;;;;;5033271;28;20165;-87
2023/08/07 07:57:36;;;;;;;3.50;1.87;;;19.50;99.90;;;;;;5016924;28;20173;-88
2023/08/07 08:00:03;;;;;;;2.40;2.03;;;19.50;99.90;;;;;;5019478;28;20724;-88
2023/08/07 08:02:29;;;;;;;2.70;1.63;;;19.50;99.90;;;;;;5017106;28;20181;-87
2023/08/07 08:04:54;;;;;;;3.20;1.90;;;19.40;99.90;;;;;;5019333;28;20187;-86
2023/08/07 08:07:21;;;;;;;3.53;1.80;;;19.40;99.90;;;;;;5016498;28;20279;-87
2023/08/07 08:09:47;;;;;;;3.83;2.00;;;19.40;99.90;;;;;;5035347;28;20272;-87
2023/08/07 08:12:13;;;;;;;2.57;1.70;;;19.30;99.90;;;;;;5016754;28;20291;-87
2023/08/07 08:14:38;;;;;;;3.77;2.03;;;19.40;99.90;;;;;;5016480;28;20397;-87
2023/08/07 08:17:04;;;;;;;3.47;1.77;;;19.40;99.90;;;;;;5013003;28;20183;-87
2023/08/07 08:19:30;;;;;;;2.53;1.93;;;19.40;99.90;;;;;;5015891;28;20204;-87
2023/08/07 08:21:56;;;;;;;3.90;2.03;;;19.50;99.90;;;;;;5032329;28;20245;-88
2023/08/07 08:24:23;;;;;;;2.80;1.93;;;19.50;99.90;;;;;;5014710;28;20325;-88
2023/08/07 08:26:48;;;;;;;3.73;2.10;;;19.50;99.90;;;;;;5017126;28;20184;-88
2023/08/07 08:29:15;;;;;;;2.93;2.03;;;19.50;99.90;;;;;;5012427;28;20184;-87
2023/08/07 08:31:41;;;;;;;4.10;1.93;;;19.40;99.90;;;;;;5016874;28;20212;-87
2023/08/07 08:34:06;;;;;;;1.90;1.70;;;19.40;99.90;;;;;;5037385;28;20203;-88
2023/08/07 08:36:32;;;;;;;4.43;2.23;;;19.50;99.90;;;;;;5016641;28;20450;-87
2023/08/07 08:38:58;;;;;;;3.43;2.00;;;19.40;99.90;;;;;;5017521;28;20192;-87
2023/08/07 08:41:25;;;;;;;2.87;2.00;;;19.40;99.90;;;;;;5015108;28;20262;-88
2023/08/07 08:43:54;;;;;;;4.77;1.90;;;19.30;99.90;;;;;;5016914;28;20272;-87
2023/08/07 08:46:24;;;;;;;3.80;1.90;;;19.30;99.90;;;;;;5033158;28;20725;-87
2023/08/07 08:48:57;;;;;;;3.20;1.90;;;19.10;99.90;;;;;;5015471;28;20462;-87
2023/08/07 08:51:25;;;;;;;2.80;1.83;;;19.20;99.90;;;;;;5019051;28;20219;-87
2023/08/07 08:53:56;;;;;;;3.30;1.93;;;19.40;99.90;;;;;;5015241;28;20386;-88
2023/08/07 08:56:23;;;;;;;3.13;1.93;;;19.40;99.90;;;;;;5015189;28;20176;-87
2023/08/07 08:58:52;;;;;;;4.57;1.87;;;19.30;99.90;;;;;;5031043;28;20542;-87
2023/08/07 09:01:18;;;;;;;3.43;1.87;;;19.40;99.90;;;;;;5013554;28;20479;-87
2023/08/07 09:03:45;;;;;;;2.37;1.60;;;19.50;99.90;;;;;;5019527;28;20332;-87
2023/08/07 09:06:12;;;;;;;2.77;1.70;;;19.60;99.90;;;;;;5016164;28;20348;-87
2023/08/07 09:08:42;;;;;;;4.07;1.70;;;19.60;99.90;;;;;;5019906;28;20191;-86
2023/08/07 09:11:08;;;;;;;3.20;1.80;;;19.50;99.90;;;;;;5018940;28;20306;-87
2023/08/07 09:13:36;;;;;;;3.63;1.97;;;19.60;99.90;;;;;;5020329;28;20192;-87
2023/08/07 09:16:04;;;;;;;6.57;2.10;;;19.70;99.90;;;;;;5020878;28;20189;-87
2023/08/07 09:18:30;;;;;;;4.40;2.03;;;19.80;99.90;;;;;;5021111;28;20404;-87
2023/08/07 09:20:57;;;;;;;3.73;1.80;;;19.90;99.90;;;;;;5032996;28;20271;-86
2023/08/07 09:23:24;;;;;;;5.07;1.90;;;19.90;99.90;;;;;;5019751;28;20386;-86
2023/08/07 09:26:00;;;;;;;3.43;1.80;;;19.90;99.90;;;;;;5020059;28;20185;-87
2023/08/07 09:28:28;;;;;;;3.37;1.97;;;19.90;99.90;;;;;;5041223;28;20180;-86
2023/08/07 09:30:54;;;;;;;7.97;2.20;;;19.80;99.90;;;;;;5021700;28;20639;-86
2023/08/07 09:33:26;;;;;;;4.90;2.20;;;19.90;99.90;;;;;;5019895;28;20589;-86
2023/08/07 09:35:57;;;;;;;4.40;2.07;;;19.90;99.90;;;;;;5022400;28;20180;-86
2023/08/07 09:38:23;;;;;;;5.63;2.53;;;19.90;99.90;;;;;;5023076;28;20522;-86
2023/08/07 09:40:49;;;;;;;6.33;2.30;;;20.00;99.90;;;;;;5018326;28;20180;-86
2023/08/07 09:43:22;;;;;;;4.30;2.30;;;20.10;99.90;;;;;;5019758;28;20180;-86
2023/08/07 09:45:50;;;;;;;6.23;2.30;;;20.10;99.90;;;;;;5020072;28;20183;-86
2023/08/07 09:48:24;;;;;;;5.80;2.17;;;20.10;99.90;;;;;;5020905;28;20209;-86
2023/08/07 09:50:50;;;;;;;6.20;2.37;;;20.10;99.90;;;;;;5039761;28;20255;-86
2023/08/07 09:53:16;;;;;;;7.33;2.67;;;20.10;99.90;;;;;;5018498;28;20189;-86
2023/08/07 09:55:42;;;;;;;7.13;2.33;;;20.10;99.90;;;;;;5035532;28;20233;-86
2023/08/07 09:58:12;;;;;;;8.57;2.50;;;20.20;99.90;;;;;;5024716;28;20183;-86
2023/08/07 10:00:37;;;;;;;6.43;2.77;;;20.30;99.90;;;;;;5024636;28;20238;-86
2023/08/07 10:03:04;;;;;;;5.60;2.40;;;20.20;99.90;;;;;;5020550;28;20195;-87
2023/08/07 10:05:30;;;;;;;7.70;2.97;;;20.10;99.90;;;;;;5021785;28;20189;-87
2023/08/07 10:07:58;;;;;;;8.97;2.80;;;20.20;99.90;;;;;;5019610;28;20184;-88
2023/08/07 10:10:25;;;;;;;6.23;2.50;;;20.10;99.90;;;;;;5020540;28;20244;-87
2023/08/07 10:12:52;;;;;;;7.33;2.50;;;20.00;99.90;;;;;;5018571;28;20192;-86
2023/08/07 10:15:19;;;;;;;7.83;2.63;;;19.80;99.90;;;;;;5018037;28;20461;-87
2023/08/07 10:17:45;;;;;;;5.90;2.47;;;19.70;99.90;;;;;;5018048;28;20211;-87
2023/08/07 10:20:12;;;;;;;5.47;2.60;;;19.70;99.90;;;;;;5021918;28;20238;-86
2023/08/07 10:22:39;;;;;;;5.93;2.90;;;19.70;99.90;;;;;;5021242;28;20271;-86
2023/08/07 10:25:06;;;;;;;7.43;2.67;;;19.90;99.90;;;;;;5018650;28;20254;-85
2023/08/07 10:27:38;;;;;;;5.40;2.60;;;20.00;99.90;;;;;;5019334;28;20558;-85
2023/08/07 10:30:07;;;;;;;8.43;2.57;;;20.20;99.90;;;;;;5017849;28;20269;-86
2023/08/07 10:32:34;;;;;;;10.33;2.73;;;20.30;99.90;;;;;;5017236;28;20441;-85
2023/08/07 10:35:04;;;;;;;5.67;2.50;;;20.30;99.90;;;;;;5023797;28;20180;-86
2023/08/07 10:37:42;;;;;;;6.37;2.30;;;20.30;99.90;;;;;;5020131;28;20204;-86
2023/08/07 10:40:11;;;;;;;5.97;2.33;;;20.30;99.90;;;;;;5034542;28;20354;-86
2023/08/07 10:42:59;;;;;;;7.20;2.90;;;20.40;99.90;;;;;;5021637;28;20275;-85
2023/08/07 10:45:27;;;;;;;7.37;2.30;;;20.30;99.90;;;;;;5017924;28;20628;-86
2023/08/07 10:48:20;;;;;;;9.07;2.57;;;20.30;99.90;;;;;;5028689;28;20196;-85
2023/08/07 10:50:54;;;;;;;6.23;2.40;;;20.30;99.90;;;;;;5034105;28;20675;-87
2023/08/07 10:53:28;;;;;;;10.57;2.60;;;20.20;99.90;;;;;;5032520;28;20187;-85
2023/08/07 10:55:57;;;;;;;12.80;3.27;;;20.30;99.90;;;;;;5018715;28;20218;-85
2023/08/07 10:58:23;;;;;;;12.90;3.53;;;20.40;99.90;;;;;;5021444;28;20532;-85
2023/08/07 11:01:12;;;;;;;12.00;3.67;;;20.50;99.90;;;;;;5024294;28;20249;-85
2023/08/07 11:03:42;;;;;;;13.47;3.07;;;20.50;99.90;;;;;;5037521;28;20188;-85
2023/08/07 11:06:10;;;;;;;10.90;2.97;;;20.50;99.90;;;;;;5036527;28;20208;-84
2023/08/07 11:08:38;;;;;;;8.57;2.87;;;20.50;99.90;;;;;;5033581;28;20192;-84
2023/08/07 11:11:07;;;;;;;11.23;2.90;;;20.50;99.90;;;;;;5015548;28;20208;-84
2023/08/07 11:13:33;;;;;;;11.90;2.70;;;20.40;99.90;;;;;;5015783;28;20336;-84
2023/08/07 11:16:02;;;;;;;8.30;3.00;;;20.50;99.90;;;;;;5016687;28;20291;-85
2023/08/07 11:18:28;;;;;;;7.17;2.90;;;20.50;99.90;;;;;;5018450;28;20179;-85
2023/08/07 11:20:58;;;;;;;6.73;2.60;;;20.50;99.90;;;;;;5016491;28;20181;-85
2023/08/07 11:23:25;;;;;;;8.83;2.90;;;20.40;99.90;;;;;;4989970;28;1174271;-85
2023/08/07 11:25:52;;;;;;;5.70;2.60;;;20.30;99.90;;;;;;5031863;28;20195;-85
2023/08/07 11:28:19;;;;;;;6.73;2.63;;;20.30;99.90;;;;;;5035524;28;20445;-85
2023/08/07 11:30:49;;;;;;;5.90;2.57;;;20.50;99.90;;;;;;5018259;28;20668;-85
2023/08/07 11:33:17;;;;;;;7.33;2.90;;;20.50;99.90;;;;;;5014940;28;20188;-85
2023/08/07 11:35:43;;;;;;;7.37;3.10;;;20.50;99.90;;;;;;4998295;28;20191;-84
2023/08/07 11:38:08;;;;;;;4.27;2.10;;;20.50;99.90;;;;;;5030504;28;20184;-85
2023/08/07 11:40:35;;;;;;;6.60;2.57;;;20.60;99.90;;;;;;5013854;28;20293;-84
2023/08/07 11:43:01;;;;;;;6.53;2.50;;;20.60;99.90;;;;;;5015529;28;20591;-85
2023/08/07 11:45:39;;;;;;;6.40;2.63;;;20.60;99.90;;;;;;5020803;28;20636;-85
2023/08/07 11:48:05;;;;;;;6.87;2.50;;;20.60;99.90;;;;;;5018738;28;20187;-86
2023/08/07 11:50:31;;;;;;;5.20;2.30;;;20.60;99.90;;;;;;5031248;28;20442;-86
2023/08/07 11:53:00;;;;;;;5.80;2.97;;;20.70;99.90;;;;;;5020898;28;20558;-85
2023/08/07 11:55:28;;;;;;;5.63;2.50;;;20.70;99.90;;;;;;5017446;28;20176;-85
2023/08/07 11:57:54;;;;;;;6.27;3.03;;;20.60;99.90;;;;;;5034927;28;20204;-85
2023/08/07 12:00:20;;;;;;;9.03;2.83;;;20.50;99.90;;;;;;5014294;28;20547;-85
2023/08/07 12:02:46;;;;;;;5.87;2.83;;;20.50;99.90;;;;;;5017712;28;20254;-85
2023/08/07 12:05:12;;;;;;;7.33;2.50;;;20.50;99.90;;;;;;5021431;28;20192;-84
2023/08/07 12:07:39;;;;;;;6.63;2.43;;;20.50;99.90;;;;;;5030752;28;20437;-85
2023/08/07 12:10:11;;;;;;;6.70;2.53;;;20.20;99.90;;;;;;5009891;28;20432;-85
2023/08/07 12:12:37;;;;;;;7.70;2.47;;;20.20;99.90;;;;;;5038719;28;20342;-85
2023/08/07 12:15:10;;;;;;;7.20;2.47;;;20.20;99.90;;;;;;5024619;28;20168;-86
2023/08/07 12:17:39;;;;;;;9.50;2.93;;;20.20;99.90;;;;;;5016264;28;20260;-85
2023/08/07 12:20:11;;;;;;;8.40;2.50;;;20.40;99.90;;;;;;5031841;28;20196;-85
2023/08/07 12:22:37;;;;;;;6.63;2.70;;;20.50;99.90;;;;;;5018884;28;20184;-85
2023/08/07 12:25:03;;;;;;;7.13;2.70;;;20.50;99.90;;;;;;5016014;28;20210;-86
2023/08/07 12:27:30;;;;;;;6.13;2.33;;;20.60;99.90;;;;;;5016167;28;20176;-86
2023/08/07 12:29:55;;;;;;;6.23;2.77;;;20.50;99.90;;;;;;5016440;28;20187;-84
2023/08/07 12:32:21;;;;;;;5.80;2.63;;;20.50;99.90;;;;;;5031557;28;20181;-86
2023/08/07 12:34:49;;;;;;;12.20;3.43;;;20.20;99.90;;;;;;5030827;28;20272;-86
2023/08/07 12:37:16;;;;;;;7.20;2.13;;;20.20;99.90;;;;;;5020298;28;20580;-85
2023/08/07 12:39:41;;;;;;;6.43;2.30;;;20.30;99.90;;;;;;5033560;28;20183;-85
2023/08/07 12:42:07;;;;;;;4.57;2.30;;;20.40;99.90;;;;;;5016828;28;20185;-86
2023/08/07 12:44:33;;;;;;;4.53;2.13;;;20.30;99.90;;;;;;5024613;28;20415;-86